Time;durP1;ratioP1;P1;durP2;ratioP2;P2;SDS_P1;SDS_P2;PMS_P1;PMS_P2;Temp;Humidity;BMP_temperature;BMP_pressure;BME280_temperature;BME280_humidity;BME280_pressure;Samples;Min_cycle;Max_cycle;Signal;HPM_P1;HPM_P2
2021/12/17 00:00:07;;;;;;;42.85;14.65;;;8.10;99.90;;;;;;5079587;28;20487;-59
2021/12/17 00:05:12;;;;;;;42.60;15.70;;;8.10;99.90;;;;;;5080072;28;20588;-59
2021/12/17 00:07:39;;;;;;;41.20;16.25;;;8.10;99.90;;;;;;5079078;28;20044;-60
2021/12/17 00:10:10;;;;;;;41.95;14.43;;;8.10;99.90;;;;;;5079521;28;20032;-59
2021/12/17 00:12:36;;;;;;;52.78;16.15;;;8.10;99.90;;;;;;5078742;28;20413;-60
2021/12/17 00:15:03;;;;;;;39.08;14.18;;;8.20;99.90;;;;;;5080643;28;20044;-60
2021/12/17 00:17:34;;;;;;;42.58;15.77;;;8.20;99.90;;;;;;5079353;28;20048;-60
2021/12/17 00:51:24;;;;;;;25.77;7.63;;;8.10;99.90;;;;;;5080002;28;20053;-60
2021/12/17 00:52:48;;;;;;;24.05;8.35;;;8.00;99.90;;;;;;5046192;28;20071;-60
2021/12/17 00:55:14;;;;;;;23.10;7.85;;;8.00;99.90;;;;;;5061599;28;20045;-60
2021/12/17 00:57:42;;;;;;;36.33;8.13;;;8.00;99.90;;;;;;5080226;28;20056;-60
2021/12/17 01:00:18;;;;;;;24.88;7.72;;;7.90;99.90;;;;;;5078503;28;20467;-60
2021/12/17 01:02:45;;;;;;;28.60;6.97;;;8.00;99.90;;;;;;5080116;28;20054;-60
2021/12/17 01:05:16;;;;;;;21.60;7.45;;;7.90;99.90;;;;;;5080506;28;20420;-59
2021/12/17 01:07:44;;;;;;;22.25;6.95;;;8.00;99.90;;;;;;5079665;28;20044;-59
2021/12/17 01:10:17;;;;;;;24.00;7.43;;;8.00;99.90;;;;;;5078842;28;20439;-59
2021/12/17 01:12:42;;;;;;;19.50;7.20;;;8.00;99.90;;;;;;5077902;28;20393;-59
2021/12/17 01:15:11;;;;;;;20.77;6.70;;;8.10;99.90;;;;;;5079786;28;20067;-60
2021/12/17 01:17:41;;;;;;;16.48;5.95;;;7.90;99.90;;;;;;5079657;28;20060;-59
2021/12/17 01:20:35;;;;;;;15.90;4.32;;;7.90;99.90;;;;;;5079650;28;20048;-59
2021/12/17 01:23:32;;;;;;;14.98;4.30;;;7.80;99.90;;;;;;5079670;28;20036;-60
2021/12/17 01:36:22;;;;;;;13.30;4.50;;;7.80;99.90;;;;;;5079078;28;20048;-60
2021/12/17 01:43:49;;;;;;;13.80;5.00;;;7.80;99.90;;;;;;5079204;28;20099;-60
2021/12/17 01:46:22;;;;;;;11.20;4.35;;;7.80;99.90;;;;;;5077293;28;20044;-59
2021/12/17 01:49:18;;;;;;;13.05;4.75;;;7.90;99.90;;;;;;5077687;28;20041;-59
2021/12/17 02:00:18;;;;;;;14.37;5.27;;;7.90;99.90;;;;;;5078306;28;20075;-59
2021/12/17 02:02:52;;;;;;;12.60;4.80;;;8.00;99.90;;;;;;5078462;28;20056;-60
2021/12/17 02:05:18;;;;;;;12.23;4.57;;;7.90;99.90;;;;;;5079068;28;20040;-60
2021/12/17 02:07:46;;;;;;;10.85;4.65;;;8.00;99.90;;;;;;5078323;28;20044;-60
2021/12/17 02:19:27;;;;;;;13.38;4.82;;;8.00;99.90;;;;;;5079110;28;20044;-60
2021/12/17 02:31:35;;;;;;;13.57;4.82;;;8.00;99.90;;;;;;5078610;28;19928;-60
2021/12/17 02:37:05;;;;;;;11.07;4.93;;;7.90;99.90;;;;;;5054258;28;20049;-60
2021/12/17 02:47:42;;;;;;;14.45;5.80;;;8.00;99.90;;;;;;5077135;28;20078;-60
2021/12/17 02:50:11;;;;;;;14.90;5.40;;;8.00;99.90;;;;;;5077615;28;20044;-59
2021/12/17 02:52:38;;;;;;;21.38;4.90;;;8.00;99.90;;;;;;5097108;28;20442;-59
2021/12/17 02:55:08;;;;;;;15.38;5.88;;;7.90;99.90;;;;;;5085844;28;20081;-59
2021/12/17 02:57:35;;;;;;;14.73;4.70;;;7.90;99.90;;;;;;5077820;28;20071;-59
2021/12/17 03:00:06;;;;;;;16.42;6.80;;;7.90;99.90;;;;;;5076325;28;20036;-60
2021/12/17 03:02:36;;;;;;;15.23;5.82;;;7.90;99.90;;;;;;5078832;28;20123;-59
2021/12/17 03:05:02;;;;;;;14.02;5.82;;;7.90;99.90;;;;;;5082250;28;20048;-58
2021/12/17 03:07:28;;;;;;;20.83;7.60;;;7.90;99.90;;;;;;5080069;28;20092;-60
2021/12/17 03:10:05;;;;;;;15.43;6.88;;;7.90;99.90;;;;;;5080932;28;20105;-60
2021/12/17 03:23:28;;;;;;;19.15;7.82;;;7.90;99.90;;;;;;5080465;28;20496;-59
2021/12/17 03:25:55;;;;;;;21.60;7.80;;;8.00;99.90;;;;;;5081494;28;20096;-60
2021/12/17 03:28:21;;;;;;;20.15;7.55;;;7.90;99.90;;;;;;5080191;28;20488;-60
2021/12/17 03:30:48;;;;;;;23.25;9.40;;;7.90;99.90;;;;;;5081920;28;20101;-59
2021/12/17 03:33:14;;;;;;;19.35;8.27;;;7.90;99.90;;;;;;5081141;28;20041;-59
2021/12/17 03:35:40;;;;;;;21.80;9.57;;;8.00;99.90;;;;;;5081472;28;20050;-60
2021/12/17 03:38:06;;;;;;;17.40;8.27;;;7.90;99.90;;;;;;5080863;28;20083;-60
2021/12/17 03:40:33;;;;;;;21.60;9.48;;;8.00;99.90;;;;;;5079974;28;20040;-60
2021/12/17 03:43:11;;;;;;;20.15;8.88;;;8.00;99.90;;;;;;5080762;28;20056;-59
2021/12/17 03:45:37;;;;;;;25.65;10.02;;;7.90;99.90;;;;;;5080916;28;20079;-59
2021/12/17 03:48:03;;;;;;;20.70;9.35;;;7.90;99.90;;;;;;5081545;28;20037;-59
2021/12/17 03:50:29;;;;;;;20.85;9.60;;;7.90;99.90;;;;;;5084670;28;20095;-58
2021/12/17 03:52:54;;;;;;;21.42;10.52;;;7.90;99.90;;;;;;5101446;28;20051;-59
2021/12/17 03:55:20;;;;;;;20.45;10.00;;;7.90;99.90;;;;;;5084579;28;20052;-59
2021/12/17 03:57:46;;;;;;;18.70;9.73;;;8.00;99.90;;;;;;5079671;28;20049;-60
2021/12/17 04:00:12;;;;;;;18.67;9.40;;;7.90;99.90;;;;;;5080851;28;20056;-59
2021/12/17 04:02:38;;;;;;;18.45;9.40;;;7.90;99.90;;;;;;5080772;28;20055;-59
2021/12/17 04:05:04;;;;;;;22.88;9.68;;;8.00;99.90;;;;;;5081345;28;20044;-59
2021/12/17 04:07:31;;;;;;;25.23;9.73;;;7.90;99.90;;;;;;5080269;28;20048;-59
2021/12/17 04:09:56;;;;;;;22.48;10.23;;;7.90;99.90;;;;;;5081009;28;20045;-59
2021/12/17 04:12:34;;;;;;;24.48;10.07;;;7.80;99.90;;;;;;5080162;28;20048;-59
2021/12/17 04:15:01;;;;;;;20.30;10.23;;;7.90;99.90;;;;;;5080245;28;20055;-59
2021/12/17 04:17:27;;;;;;;28.50;10.40;;;7.90;99.90;;;;;;5080657;28;20056;-59
2021/12/17 04:19:52;;;;;;;35.25;9.93;;;7.90;99.90;;;;;;5080377;28;20170;-60
2021/12/17 04:22:19;;;;;;;23.58;9.88;;;7.90;99.90;;;;;;5079495;28;20048;-60
2021/12/17 04:24:45;;;;;;;28.48;10.48;;;7.80;99.90;;;;;;5080307;28;20036;-60
2021/12/17 04:27:11;;;;;;;20.40;9.57;;;7.90;99.90;;;;;;5080649;28;20048;-60
2021/12/17 04:29:42;;;;;;;22.95;10.38;;;7.80;99.90;;;;;;5080126;28;20111;-60
2021/12/17 04:32:08;;;;;;;20.25;10.02;;;7.80;99.90;;;;;;5079239;28;20060;-59
2021/12/17 04:34:33;;;;;;;26.38;11.65;;;7.90;99.90;;;;;;5080219;28;20041;-60
2021/12/17 04:36:59;;;;;;;43.45;12.38;;;7.90;99.90;;;;;;5078697;28;20049;-60
2021/12/17 04:39:26;;;;;;;48.08;12.50;;;7.90;99.90;;;;;;5079215;28;20053;-59
2021/12/17 04:41:59;;;;;;;41.80;12.63;;;7.80;99.90;;;;;;5079928;28;20055;-60
2021/12/17 04:44:32;;;;;;;35.30;12.43;;;7.80;99.90;;;;;;5080318;28;20084;-60
2021/12/17 04:57:59;;;;;;;25.33;10.23;;;7.70;99.90;;;;;;5079812;28;20069;-60
2021/12/17 05:00:29;;;;;;;33.13;11.40;;;7.80;99.90;;;;;;5080047;28;20052;-61
2021/12/17 05:02:58;;;;;;;32.67;10.77;;;7.80;99.90;;;;;;5078294;28;20056;-59
2021/12/17 05:05:29;;;;;;;31.35;10.90;;;7.80;99.90;;;;;;5080098;28;20100;-59
2021/12/17 05:08:01;;;;;;;28.55;9.98;;;7.80;99.90;;;;;;5079150;28;20036;-59
2021/12/17 05:18:55;;;;;;;29.70;10.52;;;7.80;99.90;;;;;;5079789;28;20052;-60
2021/12/17 05:21:23;;;;;;;26.83;9.57;;;7.80;99.90;;;;;;5077910;28;20053;-60
2021/12/17 05:23:51;;;;;;;36.95;11.07;;;7.80;99.90;;;;;;5079540;28;20048;-59
2021/12/17 05:26:19;;;;;;;28.60;10.02;;;7.80;99.90;;;;;;5077591;28;20233;-59
2021/12/17 05:28:46;;;;;;;32.13;10.35;;;7.90;99.90;;;;;;5078889;28;20048;-59
2021/12/17 05:31:14;;;;;;;29.85;11.63;;;7.80;99.90;;;;;;5079585;28;20079;-59
2021/12/17 05:33:40;;;;;;;26.45;10.20;;;7.70;99.90;;;;;;5077573;28;20062;-60
2021/12/17 05:36:06;;;;;;;28.77;10.40;;;7.90;99.90;;;;;;5079088;28;20083;-59
2021/12/17 05:38:32;;;;;;;31.58;10.32;;;7.80;99.90;;;;;;5078989;28;20049;-59
2021/12/17 05:40:58;;;;;;;32.75;11.00;;;7.70;99.90;;;;;;5079202;28;20051;-60
2021/12/17 05:43:24;;;;;;;30.80;10.45;;;7.90;99.90;;;;;;5077915;28;20119;-60
2021/12/17 05:48:24;;;;;;;31.52;9.02;;;7.90;99.90;;;;;;5079177;28;20074;-60
2021/12/17 05:50:51;;;;;;;30.60;9.68;;;7.80;99.90;;;;;;5084343;28;20119;-60
2021/12/17 05:53:18;;;;;;;29.50;9.40;;;7.80;99.90;;;;;;5099565;28;20051;-60
2021/12/17 05:55:44;;;;;;;28.88;9.50;;;7.80;99.90;;;;;;5080695;28;20041;-59
2021/12/17 05:58:11;;;;;;;26.92;10.25;;;7.80;99.90;;;;;;5060902;28;20063;-59
2021/12/17 06:00:39;;;;;;;30.30;10.35;;;7.80;99.90;;;;;;5078209;28;20068;-60
2021/12/17 06:03:05;;;;;;;28.15;9.93;;;7.80;99.90;;;;;;5060563;28;20076;-59
2021/12/17 06:05:31;;;;;;;28.38;9.25;;;7.80;99.90;;;;;;5079288;28;20047;-59
2021/12/17 06:07:57;;;;;;;26.73;9.27;;;7.80;99.90;;;;;;5077176;28;20083;-59
2021/12/17 06:10:23;;;;;;;24.63;9.10;;;7.80;99.90;;;;;;5078910;28;20092;-60
2021/12/17 06:12:49;;;;;;;24.42;9.27;;;7.80;99.90;;;;;;5078590;28;20036;-60
2021/12/17 06:15:18;;;;;;;22.27;8.80;;;7.80;99.90;;;;;;5079140;28;20075;-60
2021/12/17 06:17:44;;;;;;;23.15;8.73;;;7.80;99.90;;;;;;5079013;28;20051;-59
2021/12/17 06:20:12;;;;;;;28.77;10.02;;;7.80;99.90;;;;;;5077064;28;20123;-60
2021/12/17 06:22:39;;;;;;;22.42;9.45;;;7.70;99.90;;;;;;5078917;28;20484;-59
2021/12/17 06:25:07;;;;;;;24.70;9.77;;;7.80;99.90;;;;;;5078091;28;20119;-59
2021/12/17 06:27:32;;;;;;;24.35;9.00;;;7.80;99.90;;;;;;5078705;28;20048;-60
2021/12/17 06:29:58;;;;;;;22.83;8.60;;;7.80;99.90;;;;;;5077129;28;20051;-60
2021/12/17 06:32:25;;;;;;;25.33;8.90;;;7.80;99.90;;;;;;5078532;28;20052;-59
2021/12/17 06:34:52;;;;;;;24.02;8.45;;;7.80;99.90;;;;;;5078862;28;20034;-59
2021/12/17 06:37:18;;;;;;;23.02;8.52;;;7.70;99.90;;;;;;5078010;28;20078;-60
2021/12/17 06:39:45;;;;;;;25.27;8.27;;;7.80;99.90;;;;;;5078855;28;20045;-60
2021/12/17 06:42:12;;;;;;;23.70;7.72;;;7.70;99.90;;;;;;5077829;28;20256;-60
2021/12/17 06:44:39;;;;;;;21.88;7.03;;;7.70;99.90;;;;;;5078592;28;20080;-59
2021/12/17 06:47:31;;;;;;;22.60;7.47;;;7.70;99.90;;;;;;5078116;28;20052;-60
2021/12/17 07:06:12;;;;;;;18.15;7.15;;;7.80;99.90;;;;;;5078423;28;20411;-61
2021/12/17 07:35:40;;;;;;;22.08;8.13;;;7.80;99.90;;;;;;5074881;28;20044;-60
2021/12/17 07:40:51;;;;;;;21.73;8.95;;;7.80;99.90;;;;;;5074703;28;20044;-61
2021/12/17 07:43:37;;;;;;;20.02;9.05;;;7.80;99.90;;;;;;5074184;28;20385;-60
2021/12/17 07:46:06;;;;;;;23.17;8.68;;;7.80;99.90;;;;;;5074168;28;20043;-60
2021/12/17 07:48:33;;;;;;;23.15;9.10;;;7.80;99.90;;;;;;5074581;28;20082;-60
2021/12/17 07:51:02;;;;;;;23.15;9.27;;;7.80;99.90;;;;;;5085084;28;20071;-62
2021/12/17 07:53:28;;;;;;;23.58;9.40;;;7.80;99.90;;;;;;5097920;28;20556;-60
2021/12/17 07:55:53;;;;;;;25.05;9.95;;;7.80;99.90;;;;;;5080648;28;20045;-60
2021/12/17 07:58:20;;;;;;;22.48;10.65;;;7.80;99.90;;;;;;5077680;28;20067;-60
2021/12/17 08:00:46;;;;;;;22.08;9.15;;;7.90;99.90;;;;;;5078318;28;20420;-60
2021/12/17 08:03:14;;;;;;;23.70;9.25;;;7.80;99.90;;;;;;5077205;28;20573;-60
2021/12/17 08:05:42;;;;;;;22.83;10.02;;;7.80;99.90;;;;;;5077562;28;20075;-60
2021/12/17 08:08:09;;;;;;;22.33;10.10;;;7.90;99.90;;;;;;5077008;28;20108;-60
2021/12/17 08:10:35;;;;;;;26.55;12.02;;;7.90;99.90;;;;;;5077828;28;20052;-60
2021/12/17 08:13:01;;;;;;;26.80;12.07;;;7.90;99.90;;;;;;5076061;28;20066;-60
2021/12/17 08:15:35;;;;;;;26.13;10.68;;;7.90;99.90;;;;;;5077582;28;20048;-60
2021/12/17 08:26:16;;;;;;;25.48;11.15;;;7.90;99.90;;;;;;5077234;28;20088;-60
2021/12/17 08:31:36;;;;;;;27.48;12.15;;;8.00;99.90;;;;;;5017848;28;20460;-60
2021/12/17 08:34:05;;;;;;;26.08;11.07;;;8.00;99.90;;;;;;5067675;28;20061;-59
2021/12/17 08:36:31;;;;;;;29.13;12.32;;;8.00;99.90;;;;;;5049614;28;20044;-60
2021/12/17 08:38:57;;;;;;;27.50;12.30;;;8.10;99.90;;;;;;5069110;28;20036;-58
2021/12/17 08:41:23;;;;;;;23.05;10.80;;;8.10;99.90;;;;;;5071190;28;21550;-60
2021/12/17 08:43:49;;;;;;;27.38;11.45;;;8.10;99.90;;;;;;5071286;28;20417;-60
2021/12/17 08:46:15;;;;;;;27.25;12.27;;;8.10;99.90;;;;;;5069528;28;20598;-60
2021/12/17 08:48:41;;;;;;;27.40;11.55;;;8.10;99.90;;;;;;5067880;28;20037;-59
2021/12/17 08:51:08;;;;;;;25.77;10.10;;;8.10;99.90;;;;;;5069057;28;20062;-59
2021/12/17 08:53:34;;;;;;;25.80;10.35;;;8.10;99.90;;;;;;5069587;28;20055;-59
2021/12/17 08:56:01;;;;;;;28.85;10.93;;;8.10;99.90;;;;;;5069426;28;20681;-60
2021/12/17 08:58:27;;;;;;;24.77;11.23;;;8.10;99.90;;;;;;5067750;28;20056;-60
2021/12/17 09:00:53;;;;;;;24.77;10.07;;;8.20;99.90;;;;;;5071063;28;20052;-60
2021/12/17 09:03:19;;;;;;;23.20;9.57;;;8.20;99.90;;;;;;5070326;28;20343;-60
2021/12/17 09:05:46;;;;;;;23.42;10.07;;;8.20;99.90;;;;;;5067631;28;20191;-59
2021/12/17 09:08:13;;;;;;;22.77;9.77;;;8.20;99.90;;;;;;5068857;28;20404;-59
2021/12/17 09:10:40;;;;;;;21.73;9.70;;;8.20;99.90;;;;;;5070225;28;20045;-59
2021/12/17 09:13:07;;;;;;;20.88;9.38;;;8.20;99.90;;;;;;5069269;28;20052;-59
2021/12/17 09:15:35;;;;;;;20.90;10.05;;;8.30;99.90;;;;;;5067789;28;20048;-59
2021/12/17 09:18:01;;;;;;;21.80;9.57;;;8.30;99.90;;;;;;5069165;28;20084;-58
2021/12/17 09:20:27;;;;;;;22.20;9.80;;;8.30;99.90;;;;;;5068598;28;20040;-58
2021/12/17 09:22:53;;;;;;;20.50;9.07;;;8.30;99.90;;;;;;5068911;28;20044;-59
2021/12/17 09:25:18;;;;;;;20.67;8.75;;;8.30;99.90;;;;;;5069760;28;20911;-58
2021/12/17 09:27:44;;;;;;;23.65;9.68;;;8.30;99.90;;;;;;5070631;28;20055;-58
2021/12/17 09:30:18;;;;;;;20.73;9.05;;;8.30;99.90;;;;;;5069851;28;20041;-58
2021/12/17 09:32:44;;;;;;;22.83;9.38;;;8.40;99.90;;;;;;5070357;28;20112;-59
2021/12/17 09:35:12;;;;;;;20.73;9.20;;;8.40;99.90;;;;;;5070405;28;20108;-57
2021/12/17 09:37:39;;;;;;;23.17;9.40;;;8.40;99.90;;;;;;5068692;28;20872;-58
2021/12/17 09:40:09;;;;;;;24.50;9.95;;;8.40;99.90;;;;;;5070283;28;20075;-58
2021/12/17 09:42:35;;;;;;;24.05;9.18;;;8.40;99.90;;;;;;5069655;28;20063;-59
2021/12/17 09:45:03;;;;;;;21.30;9.10;;;8.50;99.90;;;;;;5069998;28;21703;-59
2021/12/17 09:47:29;;;;;;;20.65;8.18;;;8.50;99.90;;;;;;5069022;28;20072;-58
2021/12/17 09:49:56;;;;;;;19.63;8.55;;;8.50;99.90;;;;;;5069633;28;20043;-58
2021/12/17 09:52:23;;;;;;;22.67;8.98;;;8.50;99.90;;;;;;5069543;28;20044;-58
2021/12/17 09:54:50;;;;;;;20.17;8.70;;;8.50;99.90;;;;;;5067302;28;20049;-59
2021/12/17 09:57:17;;;;;;;20.55;8.57;;;8.60;99.90;;;;;;5067964;28;20060;-61
2021/12/17 09:59:43;;;;;;;18.92;8.52;;;8.50;99.90;;;;;;5065068;28;20052;-60
2021/12/17 10:02:09;;;;;;;21.95;8.02;;;8.60;99.90;;;;;;5067953;28;20053;-58
2021/12/17 10:04:35;;;;;;;19.05;8.70;;;8.50;99.90;;;;;;5066674;28;20056;-57
2021/12/17 10:07:30;;;;;;;19.80;8.88;;;8.60;99.90;;;;;;5067226;28;20527;-57
2021/12/17 10:09:59;;;;;;;19.30;8.25;;;8.60;99.90;;;;;;5067930;28;20056;-57
2021/12/17 10:12:28;;;;;;;17.50;8.50;;;8.60;99.90;;;;;;5067226;28;20036;-58
2021/12/17 10:15:26;;;;;;;19.15;8.20;;;8.60;99.90;;;;;;5067984;28;20052;-59
2021/12/17 10:17:53;;;;;;;17.80;7.68;;;8.60;99.90;;;;;;5044513;28;20135;-58
2021/12/17 10:20:21;;;;;;;19.42;8.55;;;8.60;99.90;;;;;;5066143;28;20464;-58
2021/12/17 10:22:59;;;;;;;20.88;7.95;;;8.70;99.90;;;;;;5068469;28;20108;-57
2021/12/17 10:25:27;;;;;;;19.73;8.00;;;8.70;99.90;;;;;;5066716;28;20044;-58
2021/12/17 10:28:13;;;;;;;23.40;8.73;;;8.70;99.90;;;;;;5066765;28;20541;-57
2021/12/17 10:30:42;;;;;;;19.17;8.77;;;8.70;99.90;;;;;;5067854;28;20061;-57
2021/12/17 10:33:11;;;;;;;17.58;8.00;;;8.70;99.90;;;;;;5066244;28;20071;-57
2021/12/17 10:35:40;;;;;;;19.25;7.88;;;8.70;99.90;;;;;;5065708;28;20479;-57
2021/12/17 10:38:11;;;;;;;18.88;8.43;;;8.70;99.90;;;;;;5067385;28;20105;-57
2021/12/17 10:40:49;;;;;;;17.83;8.07;;;8.70;99.90;;;;;;5067616;28;20059;-57
2021/12/17 10:43:32;;;;;;;23.58;8.20;;;8.70;99.90;;;;;;5065729;28;20055;-60
2021/12/17 10:46:06;;;;;;;14.95;8.10;;;8.80;99.90;;;;;;5066982;28;20040;-56
2021/12/17 10:51:30;;;;;;;15.43;7.65;;;8.80;99.90;;;;;;5067209;28;20060;-57
2021/12/17 10:54:08;;;;;;;15.00;7.32;;;8.80;99.90;;;;;;5066947;28;20490;-57
2021/12/17 10:56:36;;;;;;;16.80;8.20;;;8.90;99.90;;;;;;5067554;28;20684;-57
2021/12/17 10:59:08;;;;;;;12.77;6.43;;;8.90;99.90;;;;;;5065776;28;20109;-57
2021/12/17 11:01:45;;;;;;;14.95;6.90;;;8.90;99.90;;;;;;5065999;28;20070;-57
2021/12/17 11:04:18;;;;;;;14.35;7.13;;;8.90;99.90;;;;;;5065656;28;20048;-57
2021/12/17 11:06:50;;;;;;;13.55;6.20;;;8.90;99.90;;;;;;5066962;28;20650;-57
2021/12/17 11:09:45;;;;;;;14.65;6.63;;;8.90;99.90;;;;;;5068108;28;20938;-57
2021/12/17 11:12:14;;;;;;;14.13;6.85;;;8.90;99.90;;;;;;5066762;28;20036;-57
2021/12/17 11:14:41;;;;;;;12.68;6.35;;;9.00;99.90;;;;;;5067650;28;20067;-57
2021/12/17 11:17:10;;;;;;;12.43;6.15;;;9.00;99.90;;;;;;5066384;28;20074;-57
2021/12/17 11:19:36;;;;;;;11.80;6.20;;;8.90;99.90;;;;;;5067095;28;20641;-57
2021/12/17 11:22:03;;;;;;;14.02;6.43;;;8.90;99.90;;;;;;5067551;28;20652;-57
2021/12/17 11:24:32;;;;;;;12.95;6.15;;;9.00;99.90;;;;;;5066535;28;20051;-57
2021/12/17 11:26:59;;;;;;;13.27;6.78;;;9.00;99.90;;;;;;5077634;28;20044;-58
2021/12/17 11:29:26;;;;;;;12.82;6.28;;;9.00;99.90;;;;;;5064965;28;20052;-56
2021/12/17 11:31:52;;;;;;;11.60;6.47;;;9.10;99.90;;;;;;5077687;28;20044;-57
2021/12/17 11:34:18;;;;;;;12.85;6.68;;;9.10;99.90;;;;;;5081480;28;20079;-57
2021/12/17 11:36:45;;;;;;;10.02;5.95;;;9.10;99.90;;;;;;5059601;28;20048;-57
2021/12/17 11:39:24;;;;;;;11.25;6.00;;;9.10;99.90;;;;;;5077993;28;20459;-57
2021/12/17 11:42:16;;;;;;;11.13;5.57;;;9.10;99.90;;;;;;5076429;28;20052;-56
2021/12/17 11:44:52;;;;;;;12.90;5.80;;;9.10;99.90;;;;;;5078156;28;20080;-57
2021/12/17 11:47:18;;;;;;;11.73;5.57;;;9.10;99.90;;;;;;5079680;28;20104;-57
2021/12/17 11:49:52;;;;;;;13.57;6.63;;;9.10;99.90;;;;;;5080446;28;20825;-57
2021/12/17 11:52:44;;;;;;;13.13;6.45;;;9.10;99.90;;;;;;5100219;28;20044;-57
2021/12/17 11:55:33;;;;;;;15.97;7.20;;;9.10;99.90;;;;;;5089150;28;20048;-56
2021/12/17 11:58:06;;;;;;;12.30;6.72;;;9.10;99.90;;;;;;5079465;28;20056;-57
2021/12/17 12:00:49;;;;;;;12.23;6.88;;;9.10;99.90;;;;;;5081500;28;20046;-57
2021/12/17 12:03:16;;;;;;;13.10;7.10;;;9.10;99.90;;;;;;5080359;28;20048;-57
2021/12/17 12:05:44;;;;;;;13.38;6.93;;;9.10;99.90;;;;;;5081331;28;20037;-57
2021/12/17 12:08:44;;;;;;;12.73;5.97;;;9.20;99.90;;;;;;5080452;28;20045;-57
2021/12/17 12:11:13;;;;;;;10.73;6.50;;;9.10;99.90;;;;;;5080660;28;20512;-57
2021/12/17 12:13:44;;;;;;;11.25;6.47;;;9.10;99.90;;;;;;5080778;28;20049;-58
2021/12/17 12:16:15;;;;;;;13.00;6.93;;;9.10;99.90;;;;;;5079197;28;20052;-57
2021/12/17 12:18:42;;;;;;;12.38;6.40;;;9.10;99.90;;;;;;5080731;28;20044;-57
2021/12/17 12:21:09;;;;;;;13.90;6.78;;;9.10;99.90;;;;;;5078635;28;20052;-58
2021/12/17 12:23:38;;;;;;;11.13;6.00;;;9.10;99.90;;;;;;5080663;28;20041;-57
2021/12/17 12:26:04;;;;;;;9.45;5.65;;;9.10;99.90;;;;;;5080648;28;20040;-58
2021/12/17 12:28:45;;;;;;;11.38;6.78;;;9.10;99.90;;;;;;5079995;28;20051;-57
2021/12/17 12:31:19;;;;;;;11.90;6.72;;;9.10;99.90;;;;;;5080549;28;20044;-57
2021/12/17 12:34:06;;;;;;;10.88;6.18;;;9.10;99.90;;;;;;5079753;28;20036;-58
2021/12/17 12:36:47;;;;;;;11.27;6.28;;;9.10;99.90;;;;;;5078405;28;20097;-57
2021/12/17 12:39:26;;;;;;;13.80;6.30;;;9.10;99.90;;;;;;5080818;28;20040;-58
2021/12/17 12:41:55;;;;;;;10.02;5.75;;;9.20;99.90;;;;;;5079737;28;20040;-58
2021/12/17 12:44:44;;;;;;;11.20;5.82;;;9.20;99.90;;;;;;5079743;28;20524;-58
2021/12/17 12:47:29;;;;;;;12.02;5.97;;;9.20;99.90;;;;;;5078754;28;20459;-58
2021/12/17 12:50:10;;;;;;;9.38;5.72;;;9.10;99.90;;;;;;5079566;28;20052;-57
2021/12/17 12:52:45;;;;;;;11.35;6.28;;;9.10;99.90;;;;;;5060259;28;20072;-57
2021/12/17 12:55:21;;;;;;;12.35;5.80;;;9.20;99.90;;;;;;5071351;28;20045;-58
2021/12/17 12:58:11;;;;;;;11.27;6.47;;;9.20;99.90;;;;;;5078688;28;20084;-58
2021/12/17 13:00:56;;;;;;;10.30;5.55;;;9.20;99.90;;;;;;5080516;28;20095;-59
2021/12/17 13:03:28;;;;;;;12.63;5.38;;;9.20;99.90;;;;;;5079447;28;20842;-58
2021/12/17 13:05:54;;;;;;;;;;;9.20;99.90;;;;;;5079946;28;20052;-58
2021/12/17 13:08:22;;;;;;;13.15;5.35;;;9.20;99.90;;;;;;5077788;28;19920;-58
2021/12/17 13:10:54;;;;;;;11.55;6.63;;;9.20;99.90;;;;;;5079944;28;20572;-58
2021/12/17 13:16:14;;;;;;;12.02;6.97;;;9.20;99.90;;;;;;5078128;28;20108;-58
2021/12/17 13:24:09;;;;;;;9.40;5.35;;;9.20;99.90;;;;;;5079443;28;20052;-57
2021/12/17 13:26:36;;;;;;;9.70;5.07;;;9.20;99.90;;;;;;5080001;28;20048;-57
2021/12/17 13:29:09;;;;;;;9.95;5.80;;;9.20;99.90;;;;;;5079179;28;20046;-58
2021/12/17 13:31:39;;;;;;;9.63;5.20;;;9.30;99.90;;;;;;5079348;28;20197;-57
2021/12/17 13:34:36;;;;;;;8.93;4.95;;;9.20;99.90;;;;;;5061245;28;20612;-58
2021/12/17 13:37:26;;;;;;;9.75;4.75;;;9.20;99.90;;;;;;5060372;28;20049;-57
2021/12/17 13:39:57;;;;;;;7.88;4.78;;;9.20;99.90;;;;;;5078855;28;20096;-57
2021/12/17 13:42:29;;;;;;;9.50;5.65;;;9.30;99.90;;;;;;5076656;28;20076;-58
2021/12/17 13:45:04;;;;;;;12.48;6.40;;;9.20;99.90;;;;;;5078885;28;20040;-58
2021/12/17 13:47:42;;;;;;;14.07;6.40;;;9.20;99.90;;;;;;5077070;28;20079;-58
2021/12/17 13:50:23;;;;;;;14.25;6.88;;;9.30;99.90;;;;;;5079872;28;20060;-58
2021/12/17 13:52:52;;;;;;;11.50;6.30;;;9.30;99.90;;;;;;5099824;28;20107;-58
2021/12/17 13:55:25;;;;;;;8.80;4.93;;;9.30;99.90;;;;;;5085313;28;20402;-57
2021/12/17 13:57:52;;;;;;;10.35;5.18;;;9.20;99.90;;;;;;5079004;28;20060;-58
2021/12/17 14:00:24;;;;;;;10.25;5.60;;;9.30;99.90;;;;;;5079298;28;20056;-58
2021/12/17 14:02:54;;;;;;;10.85;4.50;;;9.30;99.90;;;;;;5078682;28;20070;-57
2021/12/17 14:05:40;;;;;;;10.48;5.20;;;9.20;99.90;;;;;;5077832;28;20055;-58
2021/12/17 14:08:09;;;;;;;7.32;4.40;;;9.20;99.90;;;;;;5078142;28;20075;-57
2021/12/17 14:10:36;;;;;;;8.15;4.70;;;9.30;99.90;;;;;;5078720;28;20639;-56
2021/12/17 14:13:04;;;;;;;9.13;5.45;;;9.30;99.90;;;;;;5081011;28;21419;-58
2021/12/17 14:15:33;;;;;;;8.98;5.00;;;9.20;99.90;;;;;;5088178;28;20047;-57
2021/12/17 14:18:05;;;;;;;9.25;4.95;;;9.20;99.90;;;;;;5099206;28;20047;-58
2021/12/17 14:20:43;;;;;;;8.80;4.63;;;9.30;99.90;;;;;;5098689;28;20489;-58
2021/12/17 14:23:11;;;;;;;9.45;4.95;;;9.20;99.90;;;;;;5097714;28;20090;-58
2021/12/17 14:25:44;;;;;;;10.20;4.70;;;9.20;99.90;;;;;;5098818;28;20101;-58
2021/12/17 14:28:10;;;;;;;9.02;4.88;;;9.20;99.90;;;;;;5099055;28;20377;-58
2021/12/17 14:30:36;;;;;;;9.20;4.22;;;9.20;99.90;;;;;;5099237;28;20051;-58
2021/12/17 14:33:11;;;;;;;9.45;4.82;;;9.10;99.90;;;;;;5097413;28;20105;-58
2021/12/17 14:35:54;;;;;;;7.72;4.28;;;9.10;99.90;;;;;;5099000;28;20087;-58
2021/12/17 14:38:21;;;;;;;;;;;9.10;99.90;;;;;;5098651;28;20059;-58
2021/12/17 14:40:58;;;;;;;10.40;4.95;;;9.10;99.90;;;;;;5098948;28;20485;-58
2021/12/17 14:43:28;;;;;;;9.50;4.30;;;9.10;99.90;;;;;;5093725;28;20044;-57
2021/12/17 14:46:02;;;;;;;8.63;4.68;;;9.10;99.90;;;;;;5088696;28;20657;-58
2021/12/17 14:48:46;;;;;;;10.10;4.88;;;9.10;99.90;;;;;;5089173;28;20096;-59
2021/12/17 15:04:45;;;;;;;8.60;4.68;;;9.10;99.90;;;;;;5081368;28;20423;-58
2021/12/17 15:07:11;;;;;;;9.95;5.28;;;9.00;99.90;;;;;;5081895;28;20036;-58
2021/12/17 15:09:42;;;;;;;12.18;4.97;;;9.00;99.90;;;;;;5082583;28;20033;-58
2021/12/17 15:12:55;;;;;;;10.77;5.53;;;9.00;99.90;;;;;;5081840;28;20049;-58
2021/12/17 15:15:21;;;;;;;9.45;4.82;;;9.00;99.90;;;;;;5070207;28;20053;-59
2021/12/17 15:17:49;;;;;;;9.13;4.65;;;9.00;99.90;;;;;;5082581;28;20089;-58
2021/12/17 15:20:25;;;;;;;11.77;5.15;;;9.00;99.90;;;;;;5081638;28;20056;-58
2021/12/17 15:22:52;;;;;;;12.98;5.40;;;9.00;99.90;;;;;;5082028;28;20431;-58
2021/12/17 15:25:19;;;;;;;10.15;5.13;;;9.00;99.90;;;;;;5081507;28;20047;-58
2021/12/17 15:27:45;;;;;;;11.27;5.88;;;9.00;99.90;;;;;;5080826;28;20040;-58
2021/12/17 15:30:24;;;;;;;9.45;5.70;;;9.00;99.90;;;;;;5081870;28;20101;-57
2021/12/17 15:32:50;;;;;;;14.50;6.35;;;9.00;99.90;;;;;;5081202;28;20036;-57
2021/12/17 15:35:19;;;;;;;12.57;6.72;;;8.90;99.90;;;;;;5063719;28;20048;-58
2021/12/17 15:37:46;;;;;;;14.38;6.60;;;9.00;99.90;;;;;;5081110;28;20052;-58
2021/12/17 15:40:13;;;;;;;12.48;7.65;;;8.90;99.90;;;;;;5081433;28;20079;-58
2021/12/17 15:42:39;;;;;;;14.07;7.90;;;8.80;99.90;;;;;;5080921;28;20044;-58
2021/12/17 15:45:06;;;;;;;16.60;8.05;;;8.80;99.90;;;;;;5079978;28;20048;-58
2021/12/17 15:47:32;;;;;;;15.15;8.20;;;8.80;99.90;;;;;;5081687;28;20072;-58
2021/12/17 15:49:58;;;;;;;18.40;8.27;;;8.80;99.90;;;;;;5079687;28;20044;-59
2021/12/17 15:52:24;;;;;;;16.80;7.80;;;8.80;99.90;;;;;;5101775;28;20131;-58
2021/12/17 15:54:50;;;;;;;13.80;7.32;;;8.80;99.90;;;;;;5091624;28;20044;-58
2021/12/17 15:57:17;;;;;;;17.05;7.45;;;8.80;99.90;;;;;;5081006;28;20108;-58
2021/12/17 15:59:45;;;;;;;17.73;8.20;;;8.70;99.90;;;;;;5081034;28;20523;-60
2021/12/17 16:02:12;;;;;;;15.57;8.02;;;8.70;99.90;;;;;;5081055;28;20059;-59
2021/12/17 16:04:42;;;;;;;14.05;7.97;;;8.70;99.90;;;;;;5081376;28;20049;-61
2021/12/17 16:07:09;;;;;;;16.08;7.82;;;8.70;99.90;;;;;;5080782;28;20045;-58
2021/12/17 16:22:52;;;;;;;14.30;7.22;;;8.60;99.90;;;;;;5060151;28;20369;-58
2021/12/17 16:25:17;;;;;;;15.88;6.70;;;8.60;99.90;;;;;;5076007;28;20049;-59
2021/12/17 16:27:43;;;;;;;15.98;7.93;;;8.50;99.90;;;;;;5077344;28;20494;-58
2021/12/17 16:30:10;;;;;;;15.30;7.68;;;8.60;99.90;;;;;;5075875;28;20052;-58
2021/12/17 16:32:36;;;;;;;12.95;6.90;;;8.50;99.90;;;;;;5084690;28;20059;-58
2021/12/17 16:35:03;;;;;;;16.15;7.55;;;8.50;99.90;;;;;;5086209;28;20139;-58